createdAt,value
2023-01-27T00:00:04.430Z,1.46
2023-01-27T00:01:04.945Z,1.44
2023-01-27T00:02:04.599Z,1.46
2023-01-27T00:03:05.068Z,1.46
2023-01-27T00:04:05.113Z,1.46
2023-01-27T00:05:04.359Z,1.44
2023-01-27T00:06:04.349Z,1.46
2023-01-27T00:07:04.346Z,1.47
2023-01-27T00:08:04.314Z,1.47
2023-01-27T00:09:04.337Z,1.49
2023-01-27T00:10:05.313Z,1.52
2023-01-27T00:11:04.400Z,1.53
2023-01-27T00:12:04.288Z,1.49
2023-01-27T00:13:04.290Z,1.50
2023-01-27T00:14:04.280Z,1.50
2023-01-27T00:15:04.295Z,1.50
2023-01-27T00:16:04.386Z,1.50
2023-01-27T00:17:04.192Z,1.50
2023-01-27T00:18:04.171Z,1.50
2023-01-27T00:19:04.183Z,1.50
2023-01-27T00:20:05.081Z,1.52
2023-01-27T00:21:04.330Z,1.53
2023-01-27T00:22:04.331Z,1.53
2023-01-27T00:23:04.112Z,1.53
2023-01-27T00:24:04.395Z,1.54
2023-01-27T00:25:04.102Z,1.52
2023-01-27T00:26:04.082Z,1.54
2023-01-27T00:27:04.083Z,1.53
2023-01-27T00:28:04.260Z,1.53
2023-01-27T00:29:04.071Z,1.57
2023-01-27T00:30:04.079Z,1.56
2023-01-27T00:31:04.165Z,1.56
2023-01-27T00:32:04.300Z,1.54
2023-01-27T00:33:04.006Z,1.60
2023-01-27T00:34:03.975Z,1.57
2023-01-27T00:35:04.294Z,1.56
2023-01-27T00:36:03.947Z,1.57
2023-01-27T00:37:04.334Z,1.56
2023-01-27T00:38:04.035Z,1.57
2023-01-27T00:39:03.900Z,1.57
2023-01-27T00:40:04.346Z,1.57
2023-01-27T00:41:03.890Z,1.63
2023-01-27T00:42:03.867Z,1.57
2023-01-27T00:43:03.869Z,1.57
2023-01-27T00:44:04.057Z,1.60
2023-01-27T00:45:03.853Z,1.63
2023-01-27T00:46:03.839Z,1.57
2023-01-27T00:47:03.806Z,1.56
2023-01-27T00:48:04.288Z,1.56
2023-01-27T00:49:03.781Z,1.56
2023-01-27T00:50:04.305Z,1.61
2023-01-27T00:51:04.557Z,1.60
2023-01-27T00:52:03.901Z,1.61
2023-01-27T00:53:03.720Z,1.57
2023-01-27T00:54:04.374Z,1.57
2023-01-27T00:55:03.726Z,1.60
2023-01-27T00:56:03.701Z,1.56
2023-01-27T00:57:03.667Z,1.61
2023-01-27T00:58:04.358Z,1.60
2023-01-27T00:59:04.283Z,1.64
2023-01-27T01:00:03.667Z,1.63
2023-01-27T01:01:03.645Z,1.60
2023-01-27T01:02:03.683Z,1.61
2023-01-27T01:03:03.646Z,1.61
2023-01-27T01:04:04.299Z,1.61
2023-01-27T01:05:04.318Z,1.61
2023-01-27T01:06:04.314Z,1.61
2023-01-27T01:07:04.424Z,1.63
2023-01-27T01:08:03.533Z,1.61
2023-01-27T01:09:03.527Z,1.64
2023-01-27T01:10:03.700Z,1.64
2023-01-27T01:11:03.641Z,1.65
2023-01-27T01:12:03.734Z,1.64
2023-01-27T01:13:03.463Z,1.64
2023-01-27T01:14:03.862Z,1.64
2023-01-27T01:15:03.852Z,1.64
2023-01-27T01:16:03.901Z,1.65
2023-01-27T01:17:03.979Z,1.67
2023-01-27T01:18:03.397Z,1.64
2023-01-27T01:19:03.399Z,1.64
2023-01-27T01:20:03.641Z,1.65
2023-01-27T01:21:04.117Z,1.64
2023-01-27T01:22:04.880Z,1.65
2023-01-27T01:23:03.331Z,1.64
2023-01-27T01:24:03.374Z,1.64
2023-01-27T01:25:03.345Z,1.65
2023-01-27T01:26:03.291Z,1.65
2023-01-27T01:27:03.341Z,1.68
2023-01-27T01:28:03.266Z,1.67
2023-01-27T01:29:04.132Z,1.67
2023-01-27T01:30:04.008Z,1.67
2023-01-27T01:31:03.383Z,1.65
2023-01-27T01:32:04.286Z,1.64
2023-01-27T01:33:03.204Z,1.67
2023-01-27T01:34:03.194Z,1.68
2023-01-27T01:35:03.214Z,1.68
2023-01-27T01:36:03.940Z,1.67
2023-01-27T01:37:03.169Z,1.68
2023-01-27T01:38:03.199Z,1.67
2023-01-27T01:39:03.132Z,1.67
2023-01-27T01:40:03.139Z,1.67
2023-01-27T01:41:03.308Z,1.68
2023-01-27T01:42:03.530Z,1.70
2023-01-27T01:43:03.438Z,1.68
2023-01-27T01:44:03.529Z,1.67
2023-01-27T01:45:03.538Z,1.67
2023-01-27T01:46:03.106Z,1.68
2023-01-27T01:47:03.069Z,1.71
2023-01-27T01:48:03.038Z,1.72
2023-01-27T01:49:03.780Z,1.72
2023-01-27T01:50:03.880Z,1.74
2023-01-27T01:51:03.788Z,1.72
2023-01-27T01:52:02.992Z,1.72
2023-01-27T01:53:02.943Z,1.72
2023-01-27T01:54:03.106Z,1.72
2023-01-27T01:55:03.173Z,1.75
2023-01-27T01:56:02.931Z,1.77
2023-01-27T01:57:02.898Z,1.75
2023-01-27T01:58:03.047Z,1.72
2023-01-27T01:59:03.120Z,1.72
2023-01-27T02:00:02.894Z,1.74
2023-01-27T02:01:02.938Z,1.74
2023-01-27T02:02:02.870Z,1.75
2023-01-27T02:03:02.886Z,1.72
2023-01-27T02:04:03.096Z,1.75
2023-01-27T02:05:03.165Z,1.79
2023-01-27T02:06:02.775Z,1.77
2023-01-27T02:07:02.774Z,1.79
2023-01-27T02:08:02.754Z,1.75
2023-01-27T02:09:02.735Z,1.79
2023-01-27T02:10:02.769Z,1.75
2023-01-27T02:11:02.874Z,1.75
2023-01-27T02:12:03.099Z,1.81
2023-01-27T02:13:02.779Z,1.77
2023-01-27T02:14:03.211Z,1.75
2023-01-27T02:15:03.314Z,1.75
2023-01-27T02:16:03.320Z,1.75
2023-01-27T02:17:02.674Z,1.75
2023-01-27T02:18:03.387Z,1.75
2023-01-27T02:19:03.443Z,1.81
2023-01-27T02:20:03.316Z,1.81
2023-01-27T02:21:03.465Z,1.79
2023-01-27T02:22:02.573Z,1.83
2023-01-27T02:23:02.556Z,1.82
2023-01-27T02:24:02.584Z,1.83
2023-01-27T02:25:02.578Z,1.83
2023-01-27T02:26:02.515Z,1.82
2023-01-27T02:27:02.522Z,1.85
2023-01-27T02:28:02.502Z,1.81
2023-01-27T02:29:02.512Z,1.81
2023-01-27T02:30:02.493Z,1.85
2023-01-27T02:31:02.603Z,1.85
2023-01-27T02:32:02.503Z,1.83
2023-01-27T02:33:02.516Z,1.85
2023-01-27T02:34:02.428Z,1.85
2023-01-27T02:35:02.456Z,1.86
2023-01-27T02:36:02.410Z,1.85
2023-01-27T02:37:02.410Z,1.86
2023-01-27T02:38:02.556Z,1.83
2023-01-27T02:39:02.414Z,1.83
2023-01-27T02:40:02.366Z,1.86
2023-01-27T02:41:02.326Z,1.88
2023-01-27T02:42:02.300Z,1.88
2023-01-27T02:43:02.399Z,1.86
2023-01-27T02:44:02.486Z,1.89
2023-01-27T02:45:02.303Z,1.88
2023-01-27T02:46:02.496Z,1.86
2023-01-27T02:47:02.486Z,1.86
2023-01-27T02:48:02.224Z,1.86
2023-01-27T02:49:02.518Z,1.86
2023-01-27T02:50:02.229Z,1.89
2023-01-27T02:51:02.199Z,1.90
2023-01-27T02:52:02.272Z,1.89
2023-01-27T02:53:02.169Z,1.88
2023-01-27T02:54:02.466Z,1.89
2023-01-27T02:55:02.569Z,1.88
2023-01-27T02:56:02.118Z,1.89
2023-01-27T02:57:02.122Z,1.88
2023-01-27T02:58:02.096Z,1.88
2023-01-27T02:59:02.480Z,1.90
2023-01-27T03:00:02.180Z,1.89
2023-01-27T03:01:02.543Z,1.89
2023-01-27T03:02:02.502Z,1.92
2023-01-27T03:03:02.036Z,1.95
2023-01-27T03:04:02.025Z,1.95
2023-01-27T03:05:02.049Z,1.95
2023-01-27T03:06:02.144Z,1.92
2023-01-27T03:07:01.990Z,1.92
2023-01-27T03:08:02.000Z,1.93
2023-01-27T03:09:01.967Z,1.93
2023-01-27T03:10:02.036Z,1.95
2023-01-27T03:11:02.453Z,1.95
2023-01-27T03:12:02.496Z,1.95
2023-01-27T03:13:01.903Z,1.93
2023-01-27T03:14:02.484Z,1.98
2023-01-27T03:15:01.928Z,1.95
2023-01-27T03:16:01.890Z,1.95
2023-01-27T03:17:02.474Z,1.93
2023-01-27T03:18:02.475Z,1.95
2023-01-27T03:19:01.825Z,1.93
2023-01-27T03:20:01.862Z,1.98
2023-01-27T03:21:02.231Z,1.93
2023-01-27T03:22:02.756Z,1.95
2023-01-27T03:23:01.784Z,1.95
2023-01-27T03:24:02.445Z,1.98
2023-01-27T03:25:01.782Z,1.98
2023-01-27T03:26:01.739Z,1.93
2023-01-27T03:27:01.747Z,1.95
2023-01-27T03:28:01.782Z,1.98
2023-01-27T03:29:01.700Z,1.93
2023-01-27T03:30:02.506Z,1.95
2023-01-27T03:31:02.573Z,1.98
2023-01-27T03:32:02.497Z,1.95
2023-01-27T03:33:01.684Z,2.00
2023-01-27T03:34:01.638Z,1.98
2023-01-27T03:35:01.697Z,1.98
2023-01-27T03:36:01.609Z,1.98
2023-01-27T03:37:01.662Z,1.95
2023-01-27T03:38:01.593Z,1.93
2023-01-27T03:39:02.022Z,1.95
2023-01-27T03:40:01.608Z,1.98
2023-01-27T03:41:01.555Z,1.95
2023-01-27T03:42:01.547Z,2.01
2023-01-27T03:43:02.253Z,1.98
2023-01-27T03:44:02.307Z,1.93
2023-01-27T03:45:01.535Z,2.00
2023-01-27T03:46:01.595Z,1.98
2023-01-27T03:47:01.480Z,2.02
2023-01-27T03:48:02.275Z,2.01
2023-01-27T03:49:02.237Z,1.98
2023-01-27T03:50:01.444Z,2.00
2023-01-27T03:51:01.448Z,2.00
2023-01-27T03:52:01.397Z,1.95
2023-01-27T03:53:01.407Z,1.95
2023-01-27T03:54:01.397Z,1.95
2023-01-27T03:55:02.130Z,1.98
2023-01-27T03:56:02.282Z,1.98
2023-01-27T03:57:01.352Z,2.00
2023-01-27T03:58:02.085Z,1.98
2023-01-27T03:59:01.330Z,1.93
2023-01-27T04:00:01.829Z,1.93
2023-01-27T04:01:01.322Z,1.98
2023-01-27T04:02:01.279Z,1.95
2023-01-27T04:03:01.382Z,1.93
2023-01-27T04:04:01.452Z,1.98
2023-01-27T04:05:01.297Z,1.98
2023-01-27T04:06:01.541Z,1.98
2023-01-27T04:07:01.229Z,1.95
2023-01-27T04:08:01.207Z,2.00
2023-01-27T04:09:01.189Z,1.98
2023-01-27T04:10:01.181Z,2.02
2023-01-27T04:11:01.203Z,1.93
2023-01-27T04:12:01.881Z,1.98
2023-01-27T04:13:01.147Z,2.01
2023-01-27T04:14:02.013Z,1.98
2023-01-27T04:15:01.143Z,1.95
2023-01-27T04:16:01.192Z,2.00
2023-01-27T04:17:02.086Z,2.01
2023-01-27T04:18:02.155Z,1.93
2023-01-27T04:19:02.189Z,1.95
2023-01-27T04:20:01.050Z,1.98
2023-01-27T04:21:01.923Z,2.00
2023-01-27T04:22:01.045Z,1.95
2023-01-27T04:23:01.160Z,1.93
2023-01-27T04:24:01.248Z,1.95
2023-01-27T04:25:00.983Z,1.98
2023-01-27T04:26:00.994Z,1.98
2023-01-27T04:27:01.052Z,2.00
2023-01-27T04:28:01.105Z,1.98
2023-01-27T04:29:00.953Z,1.95
2023-01-27T04:30:00.921Z,1.98
2023-01-27T04:31:00.975Z,2.00
2023-01-27T04:32:01.349Z,1.95
2023-01-27T04:33:00.917Z,1.93
2023-01-27T04:34:01.030Z,1.98
2023-01-27T04:35:01.203Z,2.00
2023-01-27T04:36:00.866Z,1.98
2023-01-27T04:37:01.016Z,1.95
2023-01-27T04:38:01.085Z,2.01
2023-01-27T04:39:01.426Z,2.00
2023-01-27T04:40:01.593Z,1.95
2023-01-27T04:41:00.806Z,1.98
2023-01-27T04:42:01.638Z,2.01
2023-01-27T04:43:00.753Z,2.01
2023-01-27T04:44:01.553Z,2.01
2023-01-27T04:45:00.748Z,2.01
2023-01-27T04:46:00.755Z,1.98
2023-01-27T04:47:00.701Z,2.01
2023-01-27T04:48:00.684Z,2.00
2023-01-27T04:49:02.063Z,2.02
2023-01-27T04:50:02.073Z,2.05
2023-01-27T04:51:00.661Z,2.04
2023-01-27T04:52:00.628Z,2.04
2023-01-27T04:53:00.608Z,2.04
2023-01-27T04:54:00.609Z,2.02
2023-01-27T04:55:00.676Z,2.02
2023-01-27T04:56:00.629Z,2.07
2023-01-27T04:57:01.542Z,2.07
2023-01-27T04:58:00.546Z,2.04
2023-01-27T04:59:00.547Z,2.02
2023-01-27T05:00:00.643Z,2.04
2023-01-27T05:01:00.689Z,2.05
2023-01-27T05:02:00.777Z,2.05
2023-01-27T05:03:00.862Z,2.04
2023-01-27T05:04:00.847Z,2.04
2023-01-27T05:05:01.277Z,2.04
2023-01-27T05:06:00.977Z,2.02
2023-01-27T05:07:01.038Z,2.02
2023-01-27T05:08:01.064Z,2.02
2023-01-27T05:09:00.416Z,2.05
2023-01-27T05:10:00.406Z,2.01
2023-01-27T05:11:01.225Z,2.05
2023-01-27T05:12:00.469Z,2.07
2023-01-27T05:13:00.345Z,2.08
2023-01-27T05:14:00.535Z,2.08
2023-01-27T05:15:00.373Z,2.05
2023-01-27T05:16:00.418Z,2.02
2023-01-27T05:17:01.447Z,2.07
2023-01-27T05:18:00.291Z,2.07
2023-01-27T05:19:00.274Z,2.08
2023-01-27T05:20:00.306Z,2.07
2023-01-27T05:21:00.923Z,2.07
2023-01-27T05:22:00.241Z,2.09
2023-01-27T05:23:01.093Z,2.05
2023-01-27T05:24:01.110Z,2.04
2023-01-27T05:25:01.165Z,2.05
2023-01-27T05:26:01.070Z,2.09
2023-01-27T05:27:00.235Z,2.09
2023-01-27T05:28:00.204Z,2.05
2023-01-27T05:29:00.161Z,2.05
2023-01-27T05:30:00.271Z,2.07
2023-01-27T05:31:00.286Z,2.05
2023-01-27T05:32:00.294Z,2.07
2023-01-27T05:33:00.110Z,2.09
2023-01-27T05:34:00.546Z,2.05
2023-01-27T05:35:00.600Z,2.08
2023-01-27T05:36:00.701Z,2.08
2023-01-27T05:37:00.083Z,2.09
2023-01-27T05:38:00.031Z,2.09
2023-01-27T05:39:00.836Z,2.07
2023-01-27T05:40:00.140Z,2.05
2023-01-27T05:41:00.029Z,2.05
2023-01-27T05:42:00.140Z,2.07
2023-01-27T05:43:00.013Z,2.07
2023-01-27T05:44:00.180Z,2.08
2023-01-27T05:44:59.953Z,2.08
2023-01-27T05:46:00.027Z,2.07
2023-01-27T05:46:59.953Z,2.05
2023-01-27T05:47:59.927Z,2.05
2023-01-27T05:49:00.072Z,2.04
2023-01-27T05:49:59.930Z,2.05
2023-01-27T05:51:00.573Z,2.05
2023-01-27T05:52:01.582Z,2.05
2023-01-27T05:53:01.661Z,2.07
2023-01-27T05:54:00.728Z,2.11
2023-01-27T05:55:00.595Z,2.07
2023-01-27T05:55:59.944Z,2.01
2023-01-27T05:56:59.804Z,2.02
2023-01-27T05:57:59.780Z,2.04
2023-01-27T05:58:59.769Z,2.04
2023-01-27T05:59:59.767Z,2.02
2023-01-27T06:01:00.027Z,2.00
2023-01-27T06:01:59.858Z,2.02
2023-01-27T06:02:59.772Z,2.02
2023-01-27T06:03:59.707Z,2.01
2023-01-27T06:04:59.685Z,2.04
2023-01-27T06:06:00.311Z,2.02
2023-01-27T06:06:59.963Z,2.07
2023-01-27T06:07:59.646Z,2.05
2023-01-27T06:09:00.484Z,2.04
2023-01-27T06:10:01.059Z,2.07
2023-01-27T06:10:59.636Z,2.07
2023-01-27T06:12:00.477Z,2.05
2023-01-27T06:13:00.768Z,2.05
2023-01-27T06:14:00.297Z,2.09
2023-01-27T06:14:59.566Z,2.07
2023-01-27T06:15:59.645Z,2.08
2023-01-27T06:17:00.264Z,2.07
2023-01-27T06:17:59.541Z,2.08
2023-01-27T06:19:00.485Z,2.09
2023-01-27T06:19:59.635Z,2.08
2023-01-27T06:20:59.525Z,2.09
2023-01-27T06:22:00.303Z,2.11
2023-01-27T06:23:00.358Z,2.14
2023-01-27T06:23:59.492Z,2.12
2023-01-27T06:25:00.274Z,2.14
2023-01-27T06:25:59.413Z,2.12
2023-01-27T06:26:59.452Z,2.12
2023-01-27T06:27:59.421Z,2.15
2023-01-27T06:28:59.544Z,2.11
2023-01-27T06:29:59.353Z,2.12
2023-01-27T06:30:59.376Z,2.15
2023-01-27T06:31:59.375Z,2.12
2023-01-27T06:32:59.331Z,2.14
2023-01-27T06:33:59.644Z,2.11
2023-01-27T06:34:59.641Z,2.14
2023-01-27T06:36:04.147Z,2.14
2023-01-27T06:36:59.992Z,2.14
2023-01-27T06:38:00.054Z,2.19
2023-01-27T06:38:59.275Z,2.15
2023-01-27T06:39:59.182Z,2.18
2023-01-27T06:40:59.236Z,2.18
2023-01-27T06:41:59.231Z,2.18
2023-01-27T06:42:59.165Z,2.15
2023-01-27T06:43:59.135Z,2.12
2023-01-27T06:44:59.889Z,2.15
2023-01-27T06:45:59.118Z,2.15
2023-01-27T06:46:59.145Z,2.15
2023-01-27T06:47:59.069Z,2.15
2023-01-27T06:48:59.075Z,2.18
2023-01-27T06:49:59.048Z,2.18
2023-01-27T06:50:59.736Z,2.20
2023-01-27T06:51:59.084Z,2.18
2023-01-27T06:52:59.877Z,2.15
2023-01-27T06:53:59.115Z,2.18
2023-01-27T06:54:58.988Z,2.22
2023-01-27T06:55:59.075Z,2.15
2023-01-27T06:56:59.000Z,2.19
2023-01-27T06:57:58.950Z,2.19
2023-01-27T06:58:58.947Z,2.20
2023-01-27T06:59:58.918Z,2.22
2023-01-27T07:00:58.919Z,2.22
2023-01-27T07:01:58.930Z,2.22
2023-01-27T07:02:58.943Z,2.22
2023-01-27T07:03:58.882Z,2.20
2023-01-27T07:04:59.088Z,2.23
2023-01-27T07:05:59.667Z,2.25
2023-01-27T07:06:59.620Z,2.26
2023-01-27T07:07:59.720Z,2.23
2023-01-27T07:08:59.625Z,2.26
2023-01-27T07:09:58.807Z,2.27
2023-01-27T07:10:58.859Z,2.23
2023-01-27T07:11:58.797Z,2.23
2023-01-27T07:12:58.964Z,2.23
2023-01-27T07:13:58.741Z,2.26
2023-01-27T07:14:58.788Z,2.27
2023-01-27T07:15:58.743Z,2.26
2023-01-27T07:16:58.924Z,2.27
2023-01-27T07:17:58.738Z,2.26
2023-01-27T07:18:58.710Z,2.27
2023-01-27T07:19:58.668Z,2.30
2023-01-27T07:20:58.854Z,2.29
2023-01-27T07:21:58.911Z,2.30
2023-01-27T07:22:58.707Z,2.32
2023-01-27T07:23:58.762Z,2.29
2023-01-27T07:24:58.607Z,2.29
2023-01-27T07:26:00.862Z,2.30
2023-01-27T07:26:58.626Z,2.29
2023-01-27T07:27:58.576Z,2.30
2023-01-27T07:28:58.981Z,2.33
2023-01-27T07:29:59.034Z,2.30
2023-01-27T07:30:59.133Z,2.30
2023-01-27T07:31:59.177Z,2.36
2023-01-27T07:32:59.206Z,2.36
2023-01-27T07:33:59.252Z,2.36
2023-01-27T07:34:58.515Z,2.36
2023-01-27T07:35:59.372Z,2.37
2023-01-27T07:36:58.855Z,2.33
2023-01-27T07:37:58.424Z,2.32
2023-01-27T07:38:58.737Z,2.36
2023-01-27T07:39:58.451Z,2.37
2023-01-27T07:40:58.587Z,2.37
2023-01-27T07:41:59.291Z,2.36
2023-01-27T07:42:59.180Z,2.40
2023-01-27T07:43:59.081Z,2.38
2023-01-27T07:44:58.473Z,2.40
2023-01-27T07:45:59.205Z,2.40
2023-01-27T07:46:59.050Z,2.41
2023-01-27T07:47:59.217Z,2.43
2023-01-27T07:48:59.110Z,2.38
2023-01-27T07:49:59.080Z,2.41
2023-01-27T07:50:59.170Z,2.41
2023-01-27T07:51:59.799Z,2.44
2023-01-27T07:52:58.319Z,2.45
2023-01-27T07:53:59.279Z,2.45
2023-01-27T07:54:58.402Z,2.48
2023-01-27T07:56:02.576Z,2.47
2023-01-27T07:56:58.240Z,2.48
2023-01-27T07:57:58.575Z,2.48
2023-01-27T07:58:58.198Z,2.48
2023-01-27T07:59:58.167Z,2.51
2023-01-27T08:00:58.793Z,2.53
2023-01-27T08:01:58.950Z,2.55
2023-01-27T08:02:58.318Z,2.59
2023-01-27T08:03:58.936Z,2.56
2023-01-27T08:04:58.849Z,2.55
2023-01-27T08:05:58.157Z,2.56
2023-01-27T08:06:58.266Z,2.59
2023-01-27T08:07:59.094Z,2.62
2023-01-27T08:08:59.229Z,2.62
2023-01-27T08:09:58.887Z,2.68
2023-01-27T08:10:59.048Z,2.63
2023-01-27T08:11:58.056Z,2.62
2023-01-27T08:12:58.784Z,2.63
2023-01-27T08:13:58.755Z,2.63
2023-01-27T08:14:58.927Z,2.65
2023-01-27T08:15:58.822Z,2.65
2023-01-27T08:16:58.209Z,2.65
2023-01-27T08:17:58.768Z,2.66
2023-01-27T08:18:58.776Z,2.66
2023-01-27T08:19:57.898Z,2.68
2023-01-27T08:20:58.605Z,2.69
2023-01-27T08:21:57.897Z,2.68
2023-01-27T08:22:57.954Z,2.66
2023-01-27T08:23:58.139Z,2.68
2023-01-27T08:24:58.105Z,2.68
2023-01-27T08:25:58.124Z,2.68
2023-01-27T08:26:57.885Z,2.69
2023-01-27T08:27:58.134Z,2.73
2023-01-27T08:28:58.335Z,2.73
2023-01-27T08:29:58.046Z,2.71
2023-01-27T08:30:58.502Z,2.73
2023-01-27T08:31:58.495Z,2.76
2023-01-27T08:32:58.472Z,2.76
2023-01-27T08:33:58.580Z,2.77
2023-01-27T08:34:57.705Z,2.80
2023-01-27T08:35:57.764Z,2.80
2023-01-27T08:36:57.711Z,2.77
2023-01-27T08:37:58.489Z,2.83
2023-01-27T08:38:57.794Z,2.80
2023-01-27T08:39:57.706Z,2.79
2023-01-27T08:40:57.719Z,2.80
2023-01-27T08:41:58.117Z,2.79
2023-01-27T08:42:57.740Z,2.80
2023-01-27T08:43:58.452Z,2.80
2023-01-27T08:44:57.603Z,2.81
2023-01-27T08:45:58.952Z,2.81
2023-01-27T08:46:57.660Z,2.83
2023-01-27T08:47:58.331Z,2.83
2023-01-27T08:48:58.503Z,2.83
2023-01-27T08:49:57.961Z,2.83
2023-01-27T08:50:57.483Z,2.86
2023-01-27T08:51:57.509Z,2.86
2023-01-27T08:52:57.508Z,2.86
2023-01-27T08:53:57.529Z,2.89
2023-01-27T08:54:57.453Z,2.86
2023-01-27T08:55:57.490Z,2.90
2023-01-27T08:56:57.509Z,2.94
2023-01-27T08:57:57.389Z,2.94
2023-01-27T08:58:57.457Z,2.94
2023-01-27T08:59:57.394Z,2.92
2023-01-27T09:00:57.510Z,2.92
2023-01-27T09:01:57.653Z,2.92
2023-01-27T09:02:57.329Z,2.94
2023-01-27T09:03:57.441Z,2.95
2023-01-27T09:04:57.300Z,2.97
2023-01-27T09:05:57.289Z,3.01
2023-01-27T09:06:57.460Z,3.08
2023-01-27T09:07:57.464Z,3.10
2023-01-27T09:08:57.255Z,3.12
2023-01-27T09:10:12.780Z,3.15
2023-01-27T09:10:58.247Z,3.16
2023-01-27T09:11:57.527Z,3.13
2023-01-27T09:12:58.117Z,3.12
2023-01-27T09:13:57.202Z,3.12
2023-01-27T09:14:57.170Z,3.13
2023-01-27T09:15:57.197Z,3.16
2023-01-27T09:16:57.210Z,3.19
2023-01-27T09:17:57.216Z,3.22
2023-01-27T09:18:57.445Z,3.28
2023-01-27T09:19:57.437Z,3.33
2023-01-27T09:20:57.453Z,3.31
2023-01-27T09:21:57.458Z,3.31
2023-01-27T09:22:57.064Z,3.26
2023-01-27T09:23:57.178Z,3.30
2023-01-27T09:24:57.038Z,3.33
2023-01-27T09:25:57.166Z,3.30
2023-01-27T09:26:58.393Z,3.30
2023-01-27T09:27:57.015Z,3.37
2023-01-27T09:28:57.185Z,3.44
2023-01-27T09:29:57.105Z,3.49
2023-01-27T09:30:57.000Z,3.46
2023-01-27T09:31:57.037Z,3.42
2023-01-27T09:32:57.883Z,3.45
2023-01-27T09:33:56.926Z,3.45
2023-01-27T09:34:57.448Z,3.42
2023-01-27T09:35:56.905Z,3.39
2023-01-27T09:36:56.923Z,3.37
2023-01-27T09:37:56.895Z,3.30
2023-01-27T09:38:56.862Z,3.26
2023-01-27T09:39:57.466Z,3.26
2023-01-27T09:40:57.062Z,3.28
2023-01-27T09:41:57.484Z,3.25
2023-01-27T09:42:57.482Z,3.23
2023-01-27T09:43:57.490Z,3.19
2023-01-27T09:44:57.501Z,3.20
2023-01-27T09:45:57.306Z,3.19
2023-01-27T09:46:59.779Z,3.17
2023-01-27T09:47:56.755Z,3.16
2023-01-27T09:48:56.735Z,3.12
2023-01-27T09:49:57.431Z,3.13
2023-01-27T09:50:57.440Z,3.10
2023-01-27T09:51:57.063Z,3.10
2023-01-27T09:52:57.470Z,3.07
2023-01-27T09:53:57.460Z,3.05
2023-01-27T09:54:57.463Z,3.02
2023-01-27T09:55:56.642Z,3.07
2023-01-27T09:56:57.284Z,3.12
2023-01-27T09:57:57.488Z,3.15
2023-01-27T09:58:57.096Z,3.20
2023-01-27T09:59:56.610Z,3.28
2023-01-27T10:00:57.450Z,3.33
2023-01-27T10:01:56.790Z,3.37
2023-01-27T10:02:56.580Z,3.46
2023-01-27T10:03:57.213Z,3.54
2023-01-27T10:04:56.705Z,3.63
2023-01-27T10:05:57.425Z,3.74
2023-01-27T10:06:57.241Z,3.78
2023-01-27T10:07:57.280Z,3.78
2023-01-27T10:08:57.449Z,3.81
2023-01-27T10:09:56.459Z,3.81
2023-01-27T10:10:56.546Z,3.92
2023-01-27T10:11:56.578Z,4.00
2023-01-27T10:12:56.559Z,4.06
2023-01-27T10:13:56.561Z,4.10
2023-01-27T10:14:56.578Z,4.26
2023-01-27T10:15:56.735Z,4.32
2023-01-27T10:16:56.678Z,4.34
2023-01-27T10:17:56.687Z,4.29
2023-01-27T10:18:57.044Z,4.24
2023-01-27T10:19:56.465Z,4.20
2023-01-27T10:20:56.321Z,4.21
2023-01-27T10:21:58.171Z,4.20
2023-01-27T10:22:56.449Z,4.21
2023-01-27T10:23:57.041Z,4.16
2023-01-27T10:24:56.397Z,4.14
2023-01-27T10:25:56.901Z,4.11
2023-01-27T10:26:56.334Z,4.06
2023-01-27T10:27:57.187Z,3.98
2023-01-27T10:28:56.399Z,3.92
2023-01-27T10:29:56.624Z,3.88
2023-01-27T10:30:56.416Z,3.88
2023-01-27T10:31:57.138Z,3.86
2023-01-27T10:32:56.214Z,3.81
2023-01-27T10:33:56.278Z,3.78
2023-01-27T10:34:56.384Z,3.84
2023-01-27T10:35:56.958Z,3.89
2023-01-27T10:36:56.413Z,3.90
2023-01-27T10:37:57.044Z,3.96
2023-01-27T10:38:56.168Z,3.98
2023-01-27T10:39:56.524Z,4.00
2023-01-27T10:40:56.426Z,3.99
2023-01-27T10:41:56.857Z,4.00
2023-01-27T10:42:56.064Z,3.99
2023-01-27T10:43:56.053Z,4.04
2023-01-27T10:44:56.034Z,4.07
2023-01-27T10:45:56.256Z,4.10
2023-01-27T10:46:56.309Z,4.08
2023-01-27T10:47:56.331Z,4.10
2023-01-27T10:48:56.376Z,4.06
2023-01-27T10:49:55.936Z,4.02
2023-01-27T10:50:55.943Z,3.96
2023-01-27T10:51:56.495Z,3.96
2023-01-27T10:52:55.987Z,3.98
2023-01-27T10:53:56.617Z,3.99
2023-01-27T10:54:56.411Z,4.02
2023-01-27T10:55:56.735Z,4.00
2023-01-27T10:56:56.438Z,4.02
2023-01-27T10:57:56.903Z,3.93
2023-01-27T10:58:56.578Z,3.82
2023-01-27T11:00:23.666Z,3.68
2023-01-27T11:01:19.904Z,3.57
2023-01-27T11:01:56.826Z,3.52
2023-01-27T11:02:56.460Z,3.50
2023-01-27T11:03:56.538Z,3.49
2023-01-27T11:04:56.472Z,3.52
2023-01-27T11:05:59.981Z,3.49
2023-01-27T11:06:56.472Z,3.53
2023-01-27T11:07:55.879Z,3.53
2023-01-27T11:08:56.446Z,3.54
2023-01-27T11:09:56.524Z,3.60
2023-01-27T11:10:55.683Z,3.57
2023-01-27T11:11:56.315Z,3.67
2023-01-27T11:12:55.835Z,3.68
2023-01-27T11:13:55.726Z,3.68
2023-01-27T11:14:55.834Z,3.72
2023-01-27T11:15:55.820Z,3.71
2023-01-27T11:16:59.519Z,3.72
2023-01-27T11:17:56.009Z,3.78
2023-01-27T11:18:55.959Z,3.80
2023-01-27T11:19:55.793Z,3.84
2023-01-27T11:20:56.126Z,3.88
2023-01-27T11:22:07.234Z,3.89
2023-01-27T11:22:57.266Z,3.90
2023-01-27T11:23:55.528Z,3.93
2023-01-27T11:24:55.525Z,3.95
2023-01-27T11:25:55.588Z,4.00
2023-01-27T11:26:56.339Z,3.98
2023-01-27T11:27:56.062Z,3.96
2023-01-27T11:28:55.579Z,3.92
2023-01-27T11:29:56.446Z,3.89
2023-01-27T11:30:56.316Z,3.86
2023-01-27T11:31:55.537Z,3.82
2023-01-27T11:32:55.445Z,3.84
2023-01-27T11:33:56.299Z,3.86
2023-01-27T11:34:55.454Z,3.82
2023-01-27T11:35:55.999Z,3.84
2023-01-27T11:36:55.465Z,3.88
2023-01-27T11:38:06.381Z,3.96
2023-01-27T11:38:56.334Z,4.07
2023-01-27T11:39:55.330Z,4.14
2023-01-27T11:40:55.478Z,4.02
2023-01-27T11:41:55.952Z,4.00
2023-01-27T11:42:55.293Z,3.96
2023-01-27T11:44:00.938Z,3.98
2023-01-27T11:44:56.266Z,3.93
2023-01-27T11:45:55.493Z,3.92
2023-01-27T11:46:55.416Z,3.86
2023-01-27T11:47:55.546Z,3.75
2023-01-27T11:48:55.528Z,3.71
2023-01-27T11:49:56.171Z,3.67
2023-01-27T11:50:55.173Z,3.67
2023-01-27T11:51:55.767Z,3.53
2023-01-27T11:53:00.022Z,3.52
2023-01-27T11:53:55.900Z,3.52
2023-01-27T11:54:55.494Z,3.49
2023-01-27T11:55:55.883Z,3.44
2023-01-27T11:56:55.284Z,3.41
2023-01-27T11:57:55.954Z,3.42
2023-01-27T11:58:55.495Z,3.46
2023-01-27T11:59:56.005Z,3.49
2023-01-27T12:00:55.897Z,3.52
2023-01-27T12:01:55.142Z,3.50
2023-01-27T12:02:55.337Z,3.46
2023-01-27T12:03:55.174Z,3.50
2023-01-27T12:04:55.561Z,3.49
2023-01-27T12:05:55.695Z,3.49
2023-01-27T12:06:55.261Z,3.46
2023-01-27T12:07:55.671Z,3.42
2023-01-27T12:08:54.985Z,3.45
2023-01-27T12:09:55.815Z,3.46
2023-01-27T12:10:56.433Z,3.53
2023-01-27T12:11:54.873Z,3.57
2023-01-27T12:12:54.902Z,3.59
2023-01-27T12:13:54.994Z,3.60
2023-01-27T12:14:55.059Z,3.59
2023-01-27T12:15:54.913Z,3.68
2023-01-27T12:16:55.204Z,3.72
2023-01-27T12:17:55.217Z,3.68
2023-01-27T12:18:54.793Z,3.64
2023-01-27T12:19:55.347Z,3.62
2023-01-27T12:20:55.259Z,3.57
2023-01-27T12:21:55.376Z,3.54
2023-01-27T12:22:55.454Z,3.46
2023-01-27T12:23:55.573Z,3.50
2023-01-27T12:24:55.575Z,3.42
2023-01-27T12:25:55.086Z,3.45
2023-01-27T12:26:54.707Z,3.46
2023-01-27T12:27:55.684Z,3.46
2023-01-27T12:28:55.530Z,3.49
2023-01-27T12:29:55.562Z,3.45
2023-01-27T12:30:55.659Z,3.35
2023-01-27T12:31:55.555Z,3.37
2023-01-27T12:32:54.706Z,3.33
2023-01-27T12:33:55.516Z,3.34
2023-01-27T12:34:54.657Z,3.37
2023-01-27T12:35:55.375Z,3.33
2023-01-27T12:36:54.620Z,3.31
2023-01-27T12:37:54.932Z,3.34
2023-01-27T12:38:54.630Z,3.34
2023-01-27T12:39:55.491Z,3.35
2023-01-27T12:40:54.509Z,3.34
2023-01-27T12:41:54.539Z,3.30
2023-01-27T12:42:54.649Z,3.31
2023-01-27T12:43:54.525Z,3.30
2023-01-27T12:44:54.591Z,3.26
2023-01-27T12:45:55.171Z,3.31
2023-01-27T12:46:54.476Z,3.31
2023-01-27T12:47:54.692Z,3.30
2023-01-27T12:48:54.685Z,3.28
2023-01-27T12:49:54.469Z,3.26
2023-01-27T12:50:54.492Z,3.26
2023-01-27T12:51:55.122Z,3.26
2023-01-27T12:52:54.348Z,3.26
2023-01-27T12:53:56.051Z,3.25
2023-01-27T12:55:01.898Z,3.26
2023-01-27T12:55:54.315Z,3.23
2023-01-27T12:56:55.277Z,3.19
2023-01-27T12:57:55.539Z,3.17
2023-01-27T12:58:58.789Z,3.13
2023-01-27T12:59:54.309Z,3.08
2023-01-27T13:00:54.471Z,3.08
2023-01-27T13:01:55.042Z,3.10
2023-01-27T13:02:54.768Z,3.07
2023-01-27T13:03:57.626Z,3.12
2023-01-27T13:04:54.902Z,3.10
2023-01-27T13:05:58.185Z,3.08
2023-01-27T13:06:54.260Z,3.13
2023-01-27T13:07:54.192Z,3.15
2023-01-27T13:08:54.313Z,3.16
2023-01-27T13:09:54.134Z,3.15
2023-01-27T13:10:54.110Z,3.13
2023-01-27T13:11:54.163Z,3.13
2023-01-27T13:12:54.147Z,3.12
2023-01-27T13:13:54.107Z,3.10
2023-01-27T13:14:54.254Z,3.05
2023-01-27T13:15:58.860Z,3.10
2023-01-27T13:16:54.377Z,3.10
2023-01-27T13:17:54.057Z,3.04